Time;durP1;ratioP1;P1;durP2;ratioP2;P2;SDS_P1;SDS_P2;PMS_P1;PMS_P2;Temp;Humidity;BMP_temperature;BMP_pressure;BME280_temperature;BME280_humidity;BME280_pressure;Samples;Min_cycle;Max_cycle;Signal;HPM_P1;HPM_P2
2020/12/24 00:02:12;;;;;;;18.95;9.63;;;;;;;-4.54;56.41;100065.59;5125676;27;20027;-57
2020/12/24 00:04:38;;;;;;;20.15;10.13;;;;;;;-4.53;55.97;100056.88;5120511;27;20030;-59
2020/12/24 00:07:04;;;;;;;19.15;9.98;;;;;;;-4.03;56.22;100132.81;5118441;27;20534;-57
2020/12/24 00:09:29;;;;;;;19.90;10.60;;;;;;;-4.04;56.09;100144.16;5128107;27;20027;-56
2020/12/24 00:11:55;;;;;;;22.35;10.25;;;;;;;-4.05;56.38;100145.06;5113787;27;20096;-56
2020/12/24 00:14:22;;;;;;;22.08;10.60;;;;;;;-4.01;56.07;100141.50;5124753;27;20030;-60
2020/12/24 00:16:48;;;;;;;20.98;10.30;;;;;;;-3.96;56.21;100154.50;5121828;27;20035;-57
2020/12/24 00:19:13;;;;;;;18.70;10.30;;;;;;;-3.87;56.16;100151.75;5117283;27;20100;-58
2020/12/24 00:21:39;;;;;;;20.45;9.98;;;;;;;-3.89;56.12;100158.75;5127440;27;20478;-55
2020/12/24 00:24:05;;;;;;;22.58;10.30;;;;;;;-4.31;56.24;100065.25;5103456;27;20020;-57
2020/12/24 00:26:31;;;;;;;20.50;10.00;;;;;;;-3.89;56.08;100135.22;5123546;27;20081;-55
2020/12/24 00:28:57;;;;;;;19.77;10.10;;;;;;;-3.90;56.20;100120.41;5122368;27;20553;-59
2020/12/24 00:31:23;;;;;;;20.88;9.73;;;;;;;-3.96;56.25;100115.28;5115454;27;20088;-53
2020/12/24 00:33:48;;;;;;;20.52;10.55;;;;;;;-3.76;56.35;100143.72;5127518;27;20622;-57
2020/12/24 00:36:14;;;;;;;16.67;9.38;;;;;;;-3.79;56.25;100123.69;5108297;27;20031;-54
2020/12/24 00:38:39;;;;;;;16.63;9.60;;;;;;;-3.76;55.80;100130.63;5121227;27;20378;-53
2020/12/24 00:41:07;;;;;;;20.05;10.52;;;;;;;-3.72;56.58;100144.53;5118037;27;20046;-61
2020/12/24 00:43:32;;;;;;;20.30;10.05;;;;;;;-3.87;56.48;100119.47;5127468;27;20406;-57
2020/12/24 00:45:58;;;;;;;20.20;11.40;;;;;;;-3.91;56.24;100122.13;5114025;27;20477;-59
2020/12/24 00:48:23;;;;;;;18.60;10.10;;;;;;;-4.01;56.47;100104.88;5125166;27;20080;-51
2020/12/24 00:50:49;;;;;;;21.92;11.23;;;;;;;-4.08;57.03;100100.66;5120435;27;20032;-54
2020/12/24 00:53:14;;;;;;;17.67;10.13;;;;;;;-4.09;56.75;100118.06;5125039;27;20031;-56
2020/12/24 00:55:40;;;;;;;18.60;9.90;;;;;;;-4.34;56.67;100057.44;5113862;27;20039;-59
2020/12/24 00:58:05;;;;;;;19.92;10.15;;;;;;;-3.90;56.78;100121.25;5126567;27;20457;-61
2020/12/24 01:00:31;;;;;;;24.02;10.98;;;;;;;-4.06;57.37;100110.16;5104159;27;20070;-59
2020/12/24 01:02:56;;;;;;;19.40;9.98;;;;;;;-3.95;57.07;100132.69;5101502;28;20036;-55
2020/12/24 01:05:22;;;;;;;20.13;10.98;;;;;;;-3.94;57.41;100145.72;5126101;27;20485;-57
2020/12/24 01:07:47;;;;;;;20.02;10.48;;;;;;;-3.87;57.11;100127.31;5114119;27;20038;-53
2020/12/24 01:10:13;;;;;;;20.58;10.60;;;;;;;-4.66;57.01;100003.94;5124760;27;20391;-56
2020/12/24 01:12:39;;;;;;;20.10;9.98;;;;;;;-3.91;57.20;100116.06;5110104;27;20449;-56
2020/12/24 01:15:07;;;;;;;19.90;10.63;;;;;;;-3.94;57.41;100124.81;5116575;27;20144;-59
2020/12/24 01:17:34;;;;;;;22.45;10.50;;;;;;;-3.95;56.70;100111.78;5113378;27;20031;-59
2020/12/24 01:20:00;;;;;;;20.35;10.85;;;;;;;-3.87;56.72;100132.53;5126278;27;20122;-57
2020/12/24 01:22:25;;;;;;;23.40;11.32;;;;;;;-3.87;57.16;100119.47;5117650;28;20134;-53
2020/12/24 01:24:51;;;;;;;22.27;10.77;;;;;;;-3.80;56.47;100131.59;5118914;27;20052;-55
2020/12/24 01:27:17;;;;;;;21.20;10.45;;;;;;;-3.89;56.46;100129.97;5123303;27;20058;-54
2020/12/24 01:29:43;;;;;;;19.25;10.35;;;;;;;-3.92;56.56;100109.94;5113257;27;20047;-54
2020/12/24 01:32:09;;;;;;;19.42;10.23;;;;;;;-3.80;56.26;100118.50;5125319;27;20040;-55
2020/12/24 01:34:34;;;;;;;19.75;9.52;;;;;;;-4.12;56.49;100060.59;5119245;28;20033;-52
2020/12/24 01:37:01;;;;;;;20.45;10.30;;;;;;;-3.85;56.41;100113.34;5117758;27;20039;-54
2020/12/24 01:39:28;;;;;;;19.70;10.05;;;;;;;-3.81;56.65;100115.00;5108011;28;20089;-56
2020/12/24 01:41:53;;;;;;;20.48;10.35;;;;;;;-3.79;56.67;100122.84;5125674;28;20032;-53
2020/12/24 01:44:19;;;;;;;19.33;10.00;;;;;;;-3.76;56.98;100120.16;5116276;28;20042;-54
2020/12/24 01:46:44;;;;;;;22.20;11.07;;;;;;;-3.74;56.66;100113.16;5128075;27;20038;-55
2020/12/24 01:49:10;;;;;;;20.85;11.10;;;;;;;-3.68;56.72;100110.41;5114786;28;20120;-54
2020/12/24 01:51:35;;;;;;;17.92;10.38;;;;;;;-3.69;56.08;100090.38;5104583;28;20032;-53
2020/12/24 01:54:01;;;;;;;20.30;10.38;;;;;;;-4.03;56.18;100046.50;5126024;27;20466;-51
2020/12/24 01:56:27;;;;;;;20.48;10.55;;;;;;;-3.69;55.82;100100.00;5116917;28;20146;-55
2020/12/24 01:58:54;;;;;;;21.85;11.77;;;;;;;-3.71;56.32;100086.09;5117163;28;20096;-52
2020/12/24 02:01:20;;;;;;;22.40;10.75;;;;;;;-3.71;56.10;100081.69;5125058;28;20035;-54
2020/12/24 02:03:46;;;;;;;22.08;11.27;;;;;;;-3.86;55.93;100080.22;5108014;27;20109;-57
2020/12/24 02:06:12;;;;;;;20.20;10.32;;;;;;;-3.79;55.53;100094.91;5116537;27;20046;-54
2020/12/24 02:08:38;;;;;;;22.80;11.25;;;;;;;-3.82;56.00;100091.50;5120464;27;20438;-58
2020/12/24 02:11:04;;;;;;;20.73;10.90;;;;;;;-3.84;55.93;100098.50;5123361;28;20586;-55
2020/12/24 02:13:29;;;;;;;20.58;10.57;;;;;;;-3.79;56.60;100096.69;5113439;27;20031;-53
2020/12/24 02:15:55;;;;;;;22.38;11.70;;;;;;;-3.73;56.45;100091.34;5124925;28;20151;-53
2020/12/24 02:18:21;;;;;;;19.80;9.98;;;;;;;-3.70;56.21;100101.75;5108354;27;20521;-54
2020/12/24 02:20:47;;;;;;;23.83;11.63;;;;;;;-3.65;56.12;100094.66;5119392;27;20081;-53
2020/12/24 02:23:13;;;;;;;22.70;11.75;;;;;;;-3.68;56.40;100099.09;5123662;28;20046;-57
2020/12/24 02:25:40;;;;;;;21.70;10.73;;;;;;;-3.71;55.99;100084.31;5098548;27;20395;-56
2020/12/24 02:28:06;;;;;;;21.55;11.43;;;;;;;-3.66;56.11;100086.84;5121652;27;20475;-57
2020/12/24 02:30:32;;;;;;;25.25;13.82;;;;;;;-3.72;56.28;100081.75;5108900;27;20058;-58
2020/12/24 02:32:57;;;;;;;19.23;10.90;;;;;;;-3.55;56.37;100100.59;5120051;27;20066;-53
2020/12/24 02:35:23;;;;;;;21.05;10.77;;;;;;;-3.50;56.03;100092.69;5123891;27;20503;-52
2020/12/24 02:37:48;;;;;;;20.70;11.27;;;;;;;-3.50;55.98;100088.28;5116224;27;20040;-54
2020/12/24 02:40:14;;;;;;;21.52;10.50;;;;;;;-3.70;55.92;100052.03;5126206;27;20035;-56
2020/12/24 02:42:39;;;;;;;23.55;11.80;;;;;;;-3.56;55.73;100082.31;5111429;27;20433;-61
2020/12/24 02:45:05;;;;;;;23.63;11.52;;;;;;;-3.51;56.02;100096.19;5119667;27;20043;-55
2020/12/24 02:47:31;;;;;;;19.85;11.18;;;;;;;-3.47;55.55;100083.03;5125997;27;20042;-55
2020/12/24 02:49:58;;;;;;;20.88;11.25;;;;;;;-3.43;55.55;100075.94;5099261;27;20482;-51
2020/12/24 02:52:25;;;;;;;21.83;11.23;;;;;;;-3.51;55.74;100083.94;5125183;27;20050;-51
2020/12/24 02:54:51;;;;;;;21.60;11.20;;;;;;;-3.67;55.96;100054.56;5116637;27;20076;-51
2020/12/24 02:57:16;;;;;;;22.10;10.90;;;;;;;-3.68;55.35;100057.25;5118067;27;20167;-54
2020/12/24 02:59:43;;;;;;;26.77;13.07;;;;;;;-3.86;55.33;100027.00;5129280;27;20489;-58
2020/12/24 03:02:08;;;;;;;21.38;11.45;;;;;;;-3.61;55.33;100066.69;5118564;27;20059;-55
2020/12/24 03:04:34;;;;;;;24.02;12.00;;;;;;;-3.48;55.49;100081.28;5123839;27;20045;-60
2020/12/24 03:06:59;;;;;;;21.27;11.38;;;;;;;-3.48;55.98;100086.53;5117543;27;20095;-53
2020/12/24 03:09:25;;;;;;;27.90;12.15;;;;;;;-3.43;55.96;100077.72;5123893;27;20042;-58
2020/12/24 03:11:51;;;;;;;21.35;11.13;;;;;;;-3.35;55.51;100078.44;5115892;27;20399;-56
2020/12/24 03:14:18;;;;;;;24.35;12.23;;;;;;;-3.42;55.12;100069.81;5126100;27;20027;-54
2020/12/24 03:16:45;;;;;;;27.85;12.35;;;;;;;-3.39;55.64;100074.16;5122345;27;20070;-54
2020/12/24 03:19:10;;;;;;;23.83;12.40;;;;;;;-3.36;55.67;100077.59;5107731;27;20031;-59
2020/12/24 03:21:36;;;;;;;26.20;13.52;;;;;;;-3.36;55.08;100064.50;5126037;27;20414;-57
2020/12/24 03:24:02;;;;;;;23.80;12.07;;;;;;;-3.31;55.58;100072.25;5116183;27;20024;-54
2020/12/24 03:26:28;;;;;;;21.67;11.32;;;;;;;-3.28;55.15;100080.03;5124356;27;20058;-54
2020/12/24 03:28:54;;;;;;;24.33;12.45;;;;;;;-3.30;55.44;100073.97;5123814;27;20039;-52
2020/12/24 03:31:22;;;;;;;23.67;11.38;;;;;;;-3.34;55.00;100073.19;5105446;27;20051;-56
2020/12/24 03:33:48;;;;;;;24.65;12.18;;;;;;;-3.27;55.22;100071.28;5127292;27;20062;-55
2020/12/24 03:36:14;;;;;;;24.05;12.23;;;;;;;-3.34;54.97;100069.69;5118354;27;20027;-53
2020/12/24 03:38:40;;;;;;;26.95;12.40;;;;;;;-3.52;54.83;100042.09;5123273;27;20049;-53
2020/12/24 03:41:05;;;;;;;22.23;11.73;;;;;;;-3.36;54.77;100069.72;5124644;27;20496;-51
2020/12/24 03:43:31;;;;;;;28.08;12.52;;;;;;;-3.40;54.99;100065.41;5108179;27;20042;-52
2020/12/24 03:45:56;;;;;;;27.60;13.63;;;;;;;-3.42;55.44;100072.44;5130109;27;20448;-57
2020/12/24 03:48:22;;;;;;;22.42;12.10;;;;;;;-3.41;55.43;100061.06;5125082;27;20106;-56
2020/12/24 03:50:48;;;;;;;25.77;12.52;;;;;;;-3.39;55.32;100061.91;5121885;27;20486;-54
2020/12/24 03:53:13;;;;;;;24.52;12.48;;;;;;;-3.36;55.30;100068.84;5117128;27;20091;-54
2020/12/24 03:55:38;;;;;;;24.23;12.75;;;;;;;-3.32;55.28;100074.00;5120662;27;20039;-55
2020/12/24 03:58:04;;;;;;;29.63;13.13;;;;;;;-3.38;54.91;100068.88;5127770;27;20419;-55
2020/12/24 04:00:29;;;;;;;23.70;12.15;;;;;;;-3.35;55.10;100070.56;5118848;27;20035;-55
2020/12/24 04:02:55;;;;;;;26.20;12.32;;;;;;;-3.40;55.06;100054.09;5119457;27;20123;-60
2020/12/24 04:05:20;;;;;;;24.75;12.65;;;;;;;-3.30;54.90;100080.97;5126422;27;20441;-56
2020/12/24 04:07:49;;;;;;;26.92;12.38;;;;;;;-3.33;54.86;100076.66;5111734;27;20184;-56
2020/12/24 04:10:14;;;;;;;30.92;12.68;;;;;;;-3.34;54.83;100088.88;5116780;27;20410;-56
2020/12/24 04:12:39;;;;;;;25.88;12.27;;;;;;;-3.36;55.13;100077.59;5121590;27;20039;-56
2020/12/24 04:15:05;;;;;;;24.38;12.73;;;;;;;-3.36;55.17;100074.97;5124285;27;20122;-54
2020/12/24 04:17:30;;;;;;;25.00;13.45;;;;;;;-3.42;54.92;100080.28;5115019;27;20088;-51
2020/12/24 04:19:56;;;;;;;25.10;12.93;;;;;;;-3.43;55.35;100075.09;5126845;27;20114;-55
2020/12/24 04:22:21;;;;;;;25.17;12.93;;;;;;;-3.44;54.72;100094.31;5104749;27;20027;-52
2020/12/24 04:24:47;;;;;;;27.42;13.70;;;;;;;-3.51;55.13;100070.84;5120310;27;20063;-54
2020/12/24 04:27:12;;;;;;;27.58;13.10;;;;;;;-3.92;55.01;99997.47;5124931;27;20498;-52
2020/12/24 04:29:37;;;;;;;28.52;12.90;;;;;;;-3.42;55.09;100096.00;5113817;27;20054;-53
2020/12/24 04:32:03;;;;;;;24.38;13.20;;;;;;;-3.44;55.32;100084.69;5126697;27;20135;-51
2020/12/24 04:34:28;;;;;;;25.67;13.32;;;;;;;-3.42;55.29;100087.31;5094006;28;20082;-56
2020/12/24 04:36:54;;;;;;;26.85;13.60;;;;;;;-3.45;55.25;100090.81;5113397;27;20489;-58
2020/12/24 04:39:19;;;;;;;27.77;13.00;;;;;;;-3.46;55.38;100079.50;5115398;27;20035;-58
2020/12/24 04:41:47;;;;;;;32.13;15.25;;;;;;;-3.50;55.38;100079.59;5127422;27;20274;-58
2020/12/24 04:44:14;;;;;;;28.52;13.43;;;;;;;-3.47;55.22;100067.31;5116485;27;20070;-52
2020/12/24 04:46:42;;;;;;;29.15;14.00;;;;;;;-3.46;55.21;100062.94;5117393;27;20034;-54
2020/12/24 04:49:08;;;;;;;26.52;13.90;;;;;;;-3.44;55.57;100069.00;5117582;27;20491;-51
2020/12/24 04:51:34;;;;;;;27.42;13.43;;;;;;;-3.39;55.15;100072.38;5126202;27;20902;-58
2020/12/24 04:54:01;;;;;;;29.08;13.95;;;;;;;-3.33;55.19;100060.94;5114118;27;20043;-56
2020/12/24 04:56:26;;;;;;;29.02;13.93;;;;;;;-3.37;55.26;100067.13;5122989;27;20034;-56
2020/12/24 04:58:53;;;;;;;27.08;13.65;;;;;;;-3.31;54.93;100061.75;5116732;27;20027;-60
2020/12/24 05:01:19;;;;;;;26.48;13.30;;;;;;;-3.33;55.21;100067.03;5115351;27;20086;-57
2020/12/24 05:03:46;;;;;;;26.23;13.77;;;;;;;-3.32;55.37;100062.66;5126846;27;20031;-59
2020/12/24 05:06:16;;;;;;;28.65;14.07;;;;;;;-3.37;55.69;100067.13;5116240;27;20069;-54
2020/12/24 05:08:53;;;;;;;28.48;14.45;;;;;;;-3.36;56.11;100074.09;5120589;27;20040;-60
2020/12/24 05:11:24;;;;;;;27.10;14.45;;;;;;;-3.35;55.86;100066.22;5120058;27;20031;-56
2020/12/24 05:13:50;;;;;;;27.45;14.27;;;;;;;-3.69;55.59;100005.78;5125810;27;20079;-52
2020/12/24 05:16:15;;;;;;;31.45;14.88;;;;;;;-3.75;55.53;99991.06;5115939;27;20035;-57
2020/12/24 05:18:42;;;;;;;26.92;12.77;;;;;;;-3.30;55.52;100052.16;5120208;27;20424;-55
2020/12/24 05:21:07;;;;;;;26.85;13.73;;;;;;;-3.29;55.58;100059.97;5123096;27;20039;-54
2020/12/24 05:23:33;;;;;;;28.95;14.95;;;;;;;-3.30;56.25;100065.25;5099643;27;20347;-51
2020/12/24 05:25:58;;;;;;;31.45;15.25;;;;;;;-3.33;55.77;100061.81;5125773;27;20077;-50
2020/12/24 05:28:26;;;;;;;28.98;14.27;;;;;;;-3.27;56.06;100050.31;5116408;28;20127;-51
2020/12/24 05:30:52;;;;;;;29.88;14.57;;;;;;;-3.30;55.70;100041.69;5118757;27;20419;-54
2020/12/24 05:33:32;;;;;;;27.48;14.23;;;;;;;-3.19;55.93;100055.41;5124686;28;20035;-54
2020/12/24 05:36:20;;;;;;;34.83;15.10;;;;;;;-3.23;56.33;100064.22;5097779;28;20068;-53
2020/12/24 05:38:47;;;;;;;29.15;14.75;;;;;;;-3.25;55.98;100063.41;5119310;27;20185;-49
2020/12/24 05:41:33;;;;;;;29.52;14.45;;;;;;;-3.24;56.32;100057.28;5122898;28;20031;-54
2020/12/24 05:44:04;;;;;;;34.25;15.52;;;;;;;-3.16;56.32;100055.34;5095825;28;20382;-57
2020/12/24 05:46:46;;;;;;;29.67;14.45;;;;;;;-3.09;56.18;100050.84;5128014;27;20069;-60
2020/12/24 05:49:19;;;;;;;31.20;14.68;;;;;;;-3.09;56.05;100062.22;5119717;27;20023;-56
2020/12/24 05:51:49;;;;;;;31.35;14.30;;;;;;;-3.11;55.92;100048.28;5113200;27;20032;-60
2020/12/24 05:54:15;;;;;;;31.33;15.25;;;;;;;-3.22;55.99;100029.28;5123992;27;20031;-61
2020/12/24 05:56:42;;;;;;;35.42;16.60;;;;;;;-3.09;55.92;100056.97;5119313;28;20150;-57
2020/12/24 05:59:13;;;;;;;30.58;15.20;;;;;;;-3.10;55.58;100063.09;5116138;27;20055;-62
2020/12/24 06:01:39;;;;;;;31.90;15.35;;;;;;;-3.08;55.81;100056.06;5125934;28;20084;-61
2020/12/24 06:04:08;;;;;;;35.28;16.80;;;;;;;-3.09;56.00;100054.34;5116961;27;20436;-60
2020/12/24 06:06:42;;;;;;;31.23;15.38;;;;;;;-3.08;56.46;100058.69;5116114;27;20054;-60
2020/12/24 06:09:16;;;;;;;32.40;15.65;;;;;;;-3.65;56.09;99958.59;5120074;27;20041;-58
2020/12/24 06:11:50;;;;;;;28.90;14.40;;;;;;;-3.08;55.81;100040.38;5130490;27;20126;-61
2020/12/24 06:14:30;;;;;;;34.67;16.23;;;;;;;-3.14;56.32;100039.63;5118866;27;20490;-61
2020/12/24 06:17:03;;;;;;;31.67;15.52;;;;;;;-3.05;55.79;100040.28;5121787;27;20505;-60
2020/12/24 06:19:28;;;;;;;30.98;15.40;;;;;;;-3.39;56.09;99974.66;5129534;27;20084;-62
2020/12/24 06:21:54;;;;;;;36.40;15.63;;;;;;;-2.99;55.74;100051.53;5105661;27;20027;-60
2020/12/24 06:24:20;;;;;;;34.35;15.25;;;;;;;-2.93;55.93;100031.31;5103451;27;20504;-58
2020/12/24 06:26:55;;;;;;;31.27;16.08;;;;;;;-2.88;55.49;100049.56;5121386;27;20108;-61
2020/12/24 06:29:21;;;;;;;34.10;16.77;;;;;;;-2.96;55.85;100006.91;5107186;27;20044;-61
2020/12/24 06:31:48;;;;;;;31.55;15.77;;;;;;;-2.79;55.53;100041.50;5127160;27;20414;-60
2020/12/24 06:34:21;;;;;;;32.75;15.70;;;;;;;-2.72;56.06;100030.84;5119020;27;20035;-60
2020/12/24 06:36:47;;;;;;;37.85;15.75;;;;;;;-2.78;55.72;100016.13;5122310;27;20390;-61
2020/12/24 06:39:13;;;;;;;33.10;15.52;;;;;;;-2.68;55.61;100035.13;5099009;27;20521;-60
2020/12/24 06:41:41;;;;;;;40.55;16.98;;;;;;;-2.54;55.93;100037.44;5120738;27;20436;-61
2020/12/24 06:44:08;;;;;;;35.83;17.00;;;;;;;-2.49;55.60;100030.34;5103079;27;20081;-61
2020/12/24 06:46:56;;;;;;;37.25;16.40;;;;;;;-2.40;56.18;100026.66;5116950;27;20034;-59
2020/12/24 06:49:32;;;;;;;32.00;16.25;;;;;;;-2.33;55.59;100025.59;5103707;27;20040;-59
2020/12/24 06:51:58;;;;;;;35.38;16.27;;;;;;;-2.28;54.75;100031.59;5099271;27;20027;-62
2020/12/24 06:54:27;;;;;;;32.70;16.83;;;;;;;-2.33;54.91;100015.94;5125276;27;20047;-59
2020/12/24 06:57:24;;;;;;;34.90;17.00;;;;;;;-2.28;55.49;100018.47;5122486;27;20139;-62
2020/12/24 07:00:19;;;;;;;35.90;15.93;;;;;;;-2.19;55.07;100007.72;5114444;27;20042;-60
2020/12/24 07:02:47;;;;;;;33.30;16.73;;;;;;;-2.12;55.05;100008.44;5123444;27;20043;-63
2020/12/24 07:05:40;;;;;;;34.40;16.77;;;;;;;-2.03;55.25;100018.72;5118379;27;20036;-60
2020/12/24 07:08:07;;;;;;;35.72;16.33;;;;;;;-1.96;54.92;100016.78;5101417;27;20593;-61
2020/12/24 07:10:46;;;;;;;34.08;16.35;;;;;;;-1.94;54.60;100012.34;5116735;27;20031;-61
2020/12/24 07:13:38;;;;;;;42.40;17.02;;;;;;;-1.90;54.78;100018.41;5118078;27;20032;-59
2020/12/24 07:16:04;;;;;;;39.40;17.38;;;;;;;-1.83;54.40;100021.72;5099509;27;20038;-62
2020/12/24 07:18:31;;;;;;;35.50;17.15;;;;;;;-1.83;54.32;100008.59;5124008;27;20030;-62
2020/12/24 07:21:03;;;;;;;37.72;17.67;;;;;;;-1.73;53.82;100020.56;5124233;27;20042;-59
2020/12/24 07:23:44;;;;;;;35.05;16.85;;;;;;;-1.80;53.92;100008.53;5115646;27;20052;-61
2020/12/24 07:26:11;;;;;;;38.53;17.15;;;;;;;-1.85;54.34;99990.25;5095451;28;20044;-61
2020/12/24 07:28:38;;;;;;;36.35;17.10;;;;;;;-1.68;54.27;100015.22;5121184;27;20046;-58
2020/12/24 07:31:08;;;;;;;38.15;17.83;;;;;;;-1.67;54.23;100028.31;5118926;27;20881;-62
2020/12/24 07:33:36;;;;;;;33.55;16.30;;;;;;;-2.20;53.74;99943.06;5128221;27;20027;-62
2020/12/24 07:36:06;;;;;;;40.38;19.00;;;;;;;-2.25;54.23;99944.09;5116044;27;20027;-62
2020/12/24 07:38:31;;;;;;;35.92;17.35;;;;;;;-1.92;54.27;100015.84;5121653;27;20056;-61
2020/12/24 07:40:57;;;;;;;37.55;18.10;;;;;;;-1.83;54.07;100025.19;5109575;28;20055;-63
2020/12/24 07:43:25;;;;;;;35.80;17.15;;;;;;;-1.81;54.18;100035.66;5109888;28;20078;-62
2020/12/24 07:45:51;;;;;;;36.00;17.35;;;;;;;-2.20;53.68;99971.91;5108162;28;20031;-62
2020/12/24 07:48:19;;;;;;;39.03;17.73;;;;;;;-1.76;54.10;100032.03;5110312;28;20035;-62
2020/12/24 07:50:46;;;;;;;42.67;19.20;;;;;;;-1.71;53.74;100045.00;5110195;28;20039;-61
2020/12/24 07:53:22;;;;;;;37.00;17.83;;;;;;;-1.71;53.46;100039.75;5110229;28;20487;-63
2020/12/24 07:55:49;;;;;;;38.50;18.25;;;;;;;-1.68;54.06;100029.22;5108960;27;20483;-62
2020/12/24 07:58:16;;;;;;;39.65;18.30;;;;;;;-1.67;54.06;100046.69;5116257;27;20058;-61
2020/12/24 08:00:44;;;;;;;36.95;17.83;;;;;;;-1.63;53.83;100026.44;5122159;27;20562;-63
2020/12/24 08:03:13;;;;;;;39.58;18.35;;;;;;;-1.68;53.45;100028.34;5111109;27;20043;-59
2020/12/24 08:05:39;;;;;;;37.38;18.23;;;;;;;-1.69;53.68;100024.81;5120961;27;20038;-62
2020/12/24 08:08:05;;;;;;;35.95;18.55;;;;;;;-2.11;53.68;99951.63;5127663;27;20467;-60
2020/12/24 08:10:36;;;;;;;35.22;17.63;;;;;;;-1.67;53.71;100023.06;5113336;27;20463;-63
2020/12/24 08:13:03;;;;;;;35.47;17.40;;;;;;;-1.64;54.00;100022.97;5119126;27;20059;-64
2020/12/24 08:15:32;;;;;;;39.35;18.48;;;;;;;-1.63;54.33;100035.19;5109148;27;20514;-64
2020/12/24 08:18:00;;;;;;;33.55;17.30;;;;;;;-1.65;54.26;100023.00;5108785;27;20062;-63
2020/12/24 08:20:34;;;;;;;41.85;18.42;;;;;;;-1.64;53.72;100035.22;5106363;27;20042;-57
2020/12/24 08:23:10;;;;;;;42.80;18.88;;;;;;;-1.60;53.92;100048.22;5096079;28;20115;-70
2020/12/24 08:25:36;;;;;;;41.45;19.55;;;;;;;-1.59;54.28;100047.31;5099379;27;20059;-79
2020/12/24 08:28:03;;;;;;;40.00;19.23;;;;;;;-2.01;53.62;99960.94;5110762;27;20096;-72
2020/12/24 08:30:28;;;;;;;38.67;17.92;;;;;;;-1.50;54.10;100030.47;5104245;27;20417;-71
2020/12/24 08:32:55;;;;;;;38.83;18.17;;;;;;;-1.43;53.87;100030.28;5107127;27;20105;-65
2020/12/24 08:35:20;;;;;;;36.28;17.13;;;;;;;-1.37;53.80;100022.22;5108973;27;20081;-60
2020/12/24 08:37:47;;;;;;;40.40;18.85;;;;;;;-1.81;53.75;99944.69;5107478;27;20044;-63
2020/12/24 08:40:23;;;;;;;38.40;18.08;;;;;;;-1.22;53.24;100039.31;5100288;27;20028;-67
2020/12/24 08:42:52;;;;;;;33.72;16.10;;;;;;;-1.15;53.19;100022.50;5122152;27;20118;-70
2020/12/24 08:45:17;;;;;;;40.53;19.75;;;;;;;-1.22;53.77;100027.06;5092757;27;20040;-56
2020/12/24 08:47:43;;;;;;;36.95;19.15;;;;;;;-1.23;53.58;100004.31;5102401;28;20419;-63
2020/12/24 08:50:09;;;;;;;39.97;18.92;;;;;;;-2.85;53.66;99753.41;5102426;27;20414;-67
2020/12/24 08:52:43;;;;;;;40.22;19.20;;;;;;;-1.27;53.81;100021.09;5100850;27;20169;-69
2020/12/24 08:55:09;;;;;;;40.97;19.20;;;;;;;-1.34;53.76;100003.75;5100174;27;20534;-68
2020/12/24 08:57:36;;;;;;;45.22;20.58;;;;;;;-1.27;54.33;100009.69;5116777;27;20028;-62
2020/12/24 09:00:12;;;;;;;38.08;19.25;;;;;;;-1.25;54.28;100016.66;5100204;27;20172;-66
2020/12/24 09:02:37;;;;;;;44.42;20.30;;;;;;;-1.14;53.54;100013.72;5099743;27;20433;-61
2020/12/24 09:05:05;;;;;;;38.63;18.45;;;;;;;-1.12;54.24;100027.66;5098483;27;20024;-67
2020/12/24 09:07:34;;;;;;;40.55;19.27;;;;;;;-1.18;53.72;100007.66;5098567;27;20080;-63
2020/12/24 09:10:23;;;;;;;43.83;20.65;;;;;;;-1.11;53.97;100013.63;5096026;28;20032;-64
2020/12/24 09:12:56;;;;;;;39.53;19.17;;;;;;;-1.10;53.85;100015.34;5094311;27;20047;-75
2020/12/24 09:15:26;;;;;;;39.97;19.45;;;;;;;-1.10;53.79;100017.09;5098222;28;20046;-69
2020/12/24 09:17:53;;;;;;;43.17;19.77;;;;;;;-1.14;54.19;100018.97;5096112;27;20061;-71
2020/12/24 09:20:23;;;;;;;44.05;20.05;;;;;;;-1.17;53.98;100013.81;5094995;28;20039;-73
2020/12/24 09:22:54;;;;;;;42.15;19.20;;;;;;;-1.15;54.38;100017.25;5096905;27;20032;-69
2020/12/24 09:25:36;;;;;;;40.58;20.02;;;;;;;-1.24;54.11;99991.22;5098606;28;20169;-64
2020/12/24 09:28:17;;;;;;;38.97;17.80;;;;;;;-1.19;53.88;100013.84;5120381;27;20068;-70
2020/12/24 09:30:42;;;;;;;39.90;20.25;;;;;;;-1.23;54.74;100020.09;5099685;27;20132;-68
2020/12/24 09:33:07;;;;;;;37.47;19.15;;;;;;;-1.22;54.66;100018.31;5101180;27;20609;-69
2020/12/24 09:35:33;;;;;;;42.60;19.75;;;;;;;-1.29;54.31;100007.13;5099378;28;20032;-68
2020/12/24 09:37:59;;;;;;;41.47;18.98;;;;;;;-1.61;54.50;99932.75;5098708;28;20036;-73
2020/12/24 09:40:24;;;;;;;38.38;19.30;;;;;;;-1.22;54.26;99992.03;5102512;28;20414;-72
2020/12/24 09:42:50;;;;;;;41.67;19.60;;;;;;;-1.16;54.11;99994.50;5104333;28;20799;-68
2020/12/24 09:45:16;;;;;;;40.58;19.65;;;;;;;-1.12;54.63;99995.25;5102471;28;20035;-71
2020/12/24 09:47:46;;;;;;;43.75;20.45;;;;;;;-1.20;54.55;99990.25;5101436;28;20101;-67
2020/12/24 09:50:12;;;;;;;39.10;19.92;;;;;;;-1.11;54.14;99996.97;5094337;28;20042;-67
2020/12/24 09:52:37;;;;;;;41.13;20.65;;;;;;;-1.14;54.72;99991.81;5101096;28;20117;-64
2020/12/24 09:55:04;;;;;;;37.65;19.52;;;;;;;-1.13;54.12;99998.78;5112447;27;20056;-75
2020/12/24 09:57:32;;;;;;;40.45;20.30;;;;;;;-1.04;54.52;99982.75;5108352;28;20368;-67
2020/12/24 09:59:58;;;;;;;39.60;19.58;;;;;;;-1.06;54.67;99974.91;5121860;28;20035;-63
2020/12/24 10:09:44;;;;;;;37.75;18.92;;;;;;;-0.95;53.75;99955.34;5104261;28;20567;-64
2020/12/24 10:12:10;;;;;;;39.75;18.85;;;;;;;-0.82;54.07;99968.97;5113542;28;20043;-69
2020/12/24 10:14:35;;;;;;;39.67;19.98;;;;;;;-0.75;54.43;99963.44;5116563;27;20063;-69
2020/12/24 10:17:04;;;;;;;39.38;19.60;;;;;;;-0.74;53.74;99956.44;5095509;28;20487;-67
2020/12/24 10:19:30;;;;;;;42.85;20.23;;;;;;;-0.80;54.12;99948.75;5094922;28;20028;-66
2020/12/24 10:21:55;;;;;;;36.97;20.08;;;;;;;-0.72;54.42;99965.13;5106864;28;20031;-61
2020/12/24 10:24:22;;;;;;;37.83;19.27;;;;;;;-0.73;54.26;99940.59;5096456;28;20466;-71
2020/12/24 10:26:47;;;;;;;41.10;19.45;;;;;;;-0.64;54.00;99946.47;5114957;28;20414;-67
2020/12/24 10:29:13;;;;;;;41.80;20.67;;;;;;;-0.67;54.03;99936.06;5119634;28;20036;-67
2020/12/24 10:31:42;;;;;;;39.95;19.58;;;;;;;-0.61;53.93;99947.22;5123032;28;20027;-65
2020/12/24 10:34:08;;;;;;;41.08;19.98;;;;;;;-0.59;53.93;99952.44;5100122;28;20040;-67
2020/12/24 10:36:34;;;;;;;37.72;19.02;;;;;;;-0.53;54.41;99946.13;5104056;27;20031;-65
2020/12/24 10:38:59;;;;;;;41.15;20.08;;;;;;;-0.62;53.97;99906.06;5114005;27;20121;-72
2020/12/24 10:41:24;;;;;;;41.30;20.75;;;;;;;-0.48;54.02;99923.16;5097978;28;20039;-68
2020/12/24 10:43:50;;;;;;;37.67;19.33;;;;;;;-0.53;53.82;99904.88;5105458;28;20212;-61
2020/12/24 10:46:21;;;;;;;37.70;19.42;;;;;;;-0.33;53.60;99940.19;5109970;28;20161;-68
2020/12/24 10:48:47;;;;;;;44.42;20.75;;;;;;;-0.40;53.70;99930.81;5127368;27;20039;-68
2020/12/24 10:51:16;;;;;;;36.67;19.40;;;;;;;-0.33;53.60;99927.91;5121585;27;20030;-70
2020/12/24 10:53:41;;;;;;;39.78;19.52;;;;;;;-0.47;53.89;99904.72;5118363;27;20039;-66
2020/12/24 10:56:13;;;;;;;41.05;19.75;;;;;;;-0.31;53.79;99925.22;5126815;27;20079;-70
2020/12/24 10:58:41;;;;;;;39.10;20.20;;;;;;;-0.26;53.68;99936.44;5118051;27;20172;-65
2020/12/24 11:01:14;;;;;;;38.55;19.70;;;;;;;-0.38;54.37;99915.81;5124199;27;20032;-57
2020/12/24 11:03:40;;;;;;;36.75;19.05;;;;;;;-0.21;53.76;99931.03;5120078;27;20039;-69
2020/12/24 11:06:14;;;;;;;36.60;19.42;;;;;;;-0.10;53.41;99933.28;5097484;27;20118;-66
2020/12/24 11:08:40;;;;;;;37.50;20.83;;;;;;;-0.05;53.57;99929.59;5120514;27;20063;-66
2020/12/24 11:11:05;;;;;;;38.63;19.83;;;;;;;-0.07;53.36;99939.31;5115923;27;20436;-69
2020/12/24 11:13:31;;;;;;;40.67;20.63;;;;;;;-0.12;53.47;99929.84;5107788;27;20028;-65
2020/12/24 11:15:56;;;;;;;35.92;19.58;;;;;;;-0.13;53.19;99925.50;5104774;28;20051;-63
2020/12/24 11:18:21;;;;;;;39.75;20.10;;;;;;;-0.15;53.30;99931.69;5108130;27;20105;-58
2020/12/24 11:20:47;;;;;;;35.85;18.92;;;;;;;-0.13;53.78;99939.50;5107788;27;20035;-67
2020/12/24 11:23:12;;;;;;;37.78;19.25;;;;;;;-0.13;53.86;99943.94;5119726;27;20202;-67